Time;durP1;ratioP1;P1;durP2;ratioP2;P2;SDS_P1;SDS_P2;PMS_P1;PMS_P2;Temp;Humidity;BMP_temperature;BMP_pressure;BME280_temperature;BME280_humidity;BME280_pressure;Samples;Min_cycle;Max_cycle;Signal;HPM_P1;HPM_P2
2023/09/22 00:00:10;;;;;;;2.37;1.37;;;15.20;99.90;;;;;;5004781;28;20186;-79
2023/09/22 00:02:36;;;;;;;2.73;1.60;;;15.20;99.90;;;;;;5003571;28;20197;-80
2023/09/22 00:05:02;;;;;;;3.23;1.47;;;15.40;99.90;;;;;;5005557;28;20232;-81
2023/09/22 00:07:27;;;;;;;2.93;1.67;;;15.20;99.90;;;;;;5010979;28;20185;-80
2023/09/22 00:09:53;;;;;;;3.00;1.60;;;15.20;99.90;;;;;;5015588;28;20185;-79
2023/09/22 00:12:18;;;;;;;3.70;1.70;;;15.20;99.90;;;;;;5014936;28;20260;-79
2023/09/22 00:14:45;;;;;;;2.40;1.93;;;15.20;99.90;;;;;;5003818;28;20197;-80
2023/09/22 00:17:10;;;;;;;2.87;1.60;;;15.10;99.90;;;;;;5001936;28;20165;-79
2023/09/22 00:19:36;;;;;;;6.03;1.70;;;15.10;99.90;;;;;;5000195;28;20595;-79
2023/09/22 00:22:02;;;;;;;6.70;1.80;;;15.10;99.90;;;;;;4999306;28;20200;-80
2023/09/22 00:24:28;;;;;;;2.73;1.83;;;15.10;99.90;;;;;;5000905;28;20256;-79
2023/09/22 00:26:54;;;;;;;3.90;2.10;;;15.10;99.90;;;;;;5001193;28;20201;-79
2023/09/22 00:29:19;;;;;;;3.77;2.10;;;15.10;99.90;;;;;;4999240;28;20178;-80
2023/09/22 00:31:45;;;;;;;3.20;2.30;;;15.10;99.90;;;;;;4999579;28;20271;-80
2023/09/22 00:34:10;;;;;;;3.27;2.20;;;15.00;99.90;;;;;;5000359;28;20200;-80
2023/09/22 00:36:36;;;;;;;2.20;2.00;;;15.10;99.90;;;;;;5000372;28;20186;-80
2023/09/22 00:39:03;;;;;;;4.87;2.30;;;15.10;99.90;;;;;;5000438;28;20193;-79
2023/09/22 00:41:29;;;;;;;4.27;2.10;;;15.10;99.90;;;;;;4999566;28;20321;-79
2023/09/22 00:43:55;;;;;;;5.70;2.43;;;15.10;99.90;;;;;;5001475;28;20230;-79
2023/09/22 00:46:24;;;;;;;2.87;2.40;;;15.10;99.90;;;;;;4999049;28;20201;-80
2023/09/22 00:48:51;;;;;;;3.50;2.00;;;15.10;99.90;;;;;;5000594;28;20244;-79
2023/09/22 00:51:19;;;;;;;5.60;2.23;;;15.10;99.90;;;;;;4999676;28;20265;-79
2023/09/22 00:53:46;;;;;;;4.90;2.27;;;15.10;99.90;;;;;;4999005;28;20237;-79
2023/09/22 00:56:12;;;;;;;5.20;2.30;;;15.00;99.90;;;;;;4999668;28;20265;-79
2023/09/22 00:58:38;;;;;;;4.17;2.40;;;15.00;99.90;;;;;;5000604;28;20547;-79
2023/09/22 01:01:04;;;;;;;3.33;2.43;;;15.00;99.90;;;;;;4999803;28;20177;-80
2023/09/22 01:03:30;;;;;;;4.00;2.20;;;14.90;99.90;;;;;;4999785;28;20197;-79
2023/09/22 01:05:56;;;;;;;2.60;2.10;;;14.90;99.90;;;;;;5001510;28;20280;-79
2023/09/22 01:08:21;;;;;;;3.30;2.37;;;14.90;99.90;;;;;;5001041;28;20197;-80
2023/09/22 01:10:47;;;;;;;7.50;2.33;;;14.90;99.90;;;;;;5000494;28;20204;-80
2023/09/22 01:13:13;;;;;;;5.30;2.07;;;15.00;99.90;;;;;;5001675;28;20185;-79
2023/09/22 01:15:43;;;;;;;4.77;2.20;;;15.00;99.90;;;;;;4968968;28;20643;-79
2023/09/22 01:18:10;;;;;;;5.03;2.23;;;15.20;99.90;;;;;;4962876;29;20237;-79
2023/09/22 01:20:45;;;;;;;5.90;2.07;;;15.00;99.90;;;;;;4962531;29;20175;-79
2023/09/22 01:23:12;;;;;;;3.80;1.97;;;14.90;99.90;;;;;;4962277;28;20210;-79
2023/09/22 01:25:44;;;;;;;7.00;2.50;;;15.00;99.90;;;;;;4963084;29;20270;-79
2023/09/22 01:28:11;;;;;;;3.30;1.93;;;15.00;99.90;;;;;;4963332;29;20217;-79
2023/09/22 01:30:38;;;;;;;6.50;2.30;;;15.00;99.90;;;;;;4963747;29;20175;-79
2023/09/22 01:33:04;;;;;;;7.53;2.33;;;15.00;99.90;;;;;;4963689;28;20195;-79
2023/09/22 01:35:35;;;;;;;3.10;2.03;;;15.00;99.90;;;;;;4961337;29;20185;-79
2023/09/22 01:38:09;;;;;;;6.47;2.00;;;15.00;99.90;;;;;;4963498;29;20183;-80
2023/09/22 01:40:34;;;;;;;5.27;2.00;;;15.00;99.90;;;;;;4962530;28;20179;-79
2023/09/22 01:43:00;;;;;;;4.43;2.00;;;15.00;99.90;;;;;;4964558;28;20617;-80
2023/09/22 01:45:25;;;;;;;7.07;2.17;;;15.00;99.90;;;;;;4973513;28;20217;-80
2023/09/22 01:47:51;;;;;;;4.73;1.70;;;14.90;99.90;;;;;;4984527;28;20171;-80
2023/09/22 01:50:17;;;;;;;7.37;1.60;;;14.90;99.90;;;;;;4980087;28;20236;-79
2023/09/22 01:52:43;;;;;;;3.33;1.60;;;14.90;99.90;;;;;;4980848;28;20262;-80
2023/09/22 01:55:09;;;;;;;2.87;1.47;;;14.90;99.90;;;;;;4986595;28;20221;-80
2023/09/22 01:57:35;;;;;;;4.67;1.80;;;14.90;99.90;;;;;;4983321;28;20209;-80
2023/09/22 02:00:05;;;;;;;6.70;1.90;;;14.90;99.90;;;;;;4985487;28;20175;-80
2023/09/22 02:02:30;;;;;;;3.70;1.27;;;14.80;99.90;;;;;;4982579;28;20221;-81
2023/09/22 02:04:56;;;;;;;8.70;1.70;;;14.90;99.90;;;;;;4985047;28;20201;-80
2023/09/22 02:07:22;;;;;;;3.73;1.80;;;14.60;99.90;;;;;;4984496;28;20190;-80
2023/09/22 02:09:47;;;;;;;8.13;2.07;;;14.70;99.90;;;;;;4985530;28;20170;-80
2023/09/22 02:12:13;;;;;;;3.93;1.97;;;14.60;99.90;;;;;;4983989;28;20599;-80
2023/09/22 02:14:39;;;;;;;3.20;1.70;;;14.70;99.90;;;;;;4985249;28;20592;-80
2023/09/22 02:17:04;;;;;;;5.87;2.00;;;14.70;99.90;;;;;;4985758;28;20213;-80
2023/09/22 02:19:35;;;;;;;5.50;1.60;;;14.70;99.90;;;;;;4983287;28;20550;-80
2023/09/22 02:22:00;;;;;;;4.93;1.73;;;14.70;99.90;;;;;;4983481;28;20205;-80
2023/09/22 02:24:26;;;;;;;5.10;1.60;;;14.80;99.90;;;;;;4984382;28;20178;-80
2023/09/22 02:26:51;;;;;;;3.90;1.77;;;14.70;99.90;;;;;;4986038;28;20210;-80
2023/09/22 02:29:17;;;;;;;5.77;1.80;;;14.80;99.90;;;;;;4986566;28;20262;-80
2023/09/22 02:31:42;;;;;;;4.90;1.67;;;14.70;99.90;;;;;;4984850;28;20281;-80
2023/09/22 02:34:08;;;;;;;5.27;1.93;;;14.60;99.90;;;;;;4984350;28;20179;-81
2023/09/22 02:36:33;;;;;;;4.43;1.70;;;14.70;99.90;;;;;;4982205;28;20213;-80
2023/09/22 02:38:59;;;;;;;5.23;1.60;;;14.60;99.90;;;;;;4984350;28;20258;-80
2023/09/22 02:41:25;;;;;;;10.20;1.90;;;14.60;99.90;;;;;;4984098;28;20274;-81
2023/09/22 02:43:50;;;;;;;7.07;1.80;;;14.60;99.90;;;;;;4983905;28;20194;-80
2023/09/22 02:46:16;;;;;;;4.80;1.70;;;14.50;99.90;;;;;;4983488;28;20248;-80
2023/09/22 02:48:41;;;;;;;4.63;1.77;;;14.50;99.90;;;;;;4985128;28;20175;-80
2023/09/22 02:51:08;;;;;;;4.40;1.83;;;14.50;99.90;;;;;;4985061;28;20193;-81
2023/09/22 02:53:34;;;;;;;6.80;2.07;;;14.60;99.90;;;;;;4984118;28;20182;-80
2023/09/22 02:56:06;;;;;;;6.27;1.83;;;14.40;99.90;;;;;;4985484;28;20185;-81
2023/09/22 02:58:32;;;;;;;6.67;1.70;;;14.30;99.90;;;;;;4983909;28;20208;-81
2023/09/22 03:00:58;;;;;;;7.10;1.97;;;14.30;99.90;;;;;;4986493;28;20202;-80
2023/09/22 03:03:24;;;;;;;3.90;1.83;;;14.20;99.90;;;;;;4984928;28;20197;-81
2023/09/22 03:05:50;;;;;;;5.00;2.00;;;14.10;99.90;;;;;;4984089;28;20213;-79
2023/09/22 03:08:15;;;;;;;2.30;1.70;;;14.10;99.90;;;;;;4984895;28;20178;-81
2023/09/22 03:10:41;;;;;;;7.17;1.73;;;14.00;99.90;;;;;;4986374;28;20175;-80
2023/09/22 03:13:07;;;;;;;5.20;2.00;;;14.00;99.90;;;;;;4986403;28;20198;-81
2023/09/22 03:15:35;;;;;;;7.27;2.13;;;14.00;99.90;;;;;;4985887;28;20171;-80
2023/09/22 03:18:01;;;;;;;9.60;2.13;;;13.90;99.90;;;;;;4984418;28;20193;-80
2023/09/22 03:20:26;;;;;;;11.93;2.30;;;13.90;99.90;;;;;;4984274;28;20182;-80
2023/09/22 03:22:52;;;;;;;6.00;2.10;;;13.90;99.90;;;;;;4984004;28;20209;-81
2023/09/22 03:25:17;;;;;;;7.20;2.03;;;13.90;99.90;;;;;;4986257;28;20217;-80
2023/09/22 03:27:43;;;;;;;5.07;2.17;;;13.90;99.90;;;;;;4986623;28;20174;-80
2023/09/22 03:30:10;;;;;;;4.33;2.00;;;13.90;99.90;;;;;;4987005;28;20170;-80
2023/09/22 03:32:38;;;;;;;4.67;2.10;;;13.90;99.90;;;;;;4984846;28;20226;-81
2023/09/22 03:35:08;;;;;;;6.80;2.20;;;13.90;99.90;;;;;;4987206;28;20664;-80
2023/09/22 03:37:34;;;;;;;5.43;1.87;;;13.80;99.90;;;;;;4988446;28;20167;-80
2023/09/22 03:40:14;;;;;;;3.43;1.70;;;13.90;99.90;;;;;;4982906;28;20178;-80
2023/09/22 03:42:45;;;;;;;5.10;1.93;;;14.00;99.90;;;;;;4983287;28;20281;-80
2023/09/22 03:45:11;;;;;;;5.83;2.10;;;13.90;99.90;;;;;;4984530;28;20293;-81
2023/09/22 03:47:39;;;;;;;4.70;2.20;;;13.90;99.90;;;;;;4983033;28;20178;-81
2023/09/22 03:50:05;;;;;;;5.30;1.53;;;13.90;99.90;;;;;;4984903;28;20174;-80
2023/09/22 03:52:30;;;;;;;5.27;1.60;;;13.90;99.90;;;;;;4982842;28;20209;-80
2023/09/22 03:54:56;;;;;;;5.80;1.83;;;13.90;99.90;;;;;;4982920;28;20170;-80
2023/09/22 03:57:22;;;;;;;8.10;1.63;;;13.90;99.90;;;;;;4981660;28;20553;-80
2023/09/22 03:59:49;;;;;;;4.37;1.80;;;13.90;99.90;;;;;;4983523;28;20178;-80
2023/09/22 04:02:14;;;;;;;7.23;1.90;;;13.70;99.90;;;;;;4983995;28;20186;-80
2023/09/22 04:04:40;;;;;;;4.50;1.90;;;13.90;99.90;;;;;;4981812;28;20531;-80
2023/09/22 04:07:05;;;;;;;2.53;1.60;;;13.90;99.90;;;;;;4982554;28;20194;-80
2023/09/22 04:09:31;;;;;;;5.10;1.80;;;13.90;99.90;;;;;;4983631;28;20177;-80
2023/09/22 04:11:57;;;;;;;2.03;1.30;;;13.90;99.90;;;;;;4984039;28;20190;-80
2023/09/22 04:14:23;;;;;;;3.00;1.33;;;13.90;99.90;;;;;;4983939;28;20320;-80
2023/09/22 04:16:49;;;;;;;9.10;1.73;;;13.90;99.90;;;;;;4981001;28;20643;-80
2023/09/22 04:19:14;;;;;;;4.20;1.37;;;13.90;99.90;;;;;;4983803;28;20261;-80
2023/09/22 04:21:44;;;;;;;3.40;1.40;;;13.90;99.90;;;;;;4980422;28;20347;-80
2023/09/22 04:24:11;;;;;;;5.80;1.47;;;13.90;99.90;;;;;;4983070;28;20586;-80
2023/09/22 04:26:42;;;;;;;4.87;1.70;;;13.90;99.90;;;;;;4984292;28;20686;-81
2023/09/22 04:29:11;;;;;;;2.53;1.47;;;13.90;99.90;;;;;;4986105;28;20154;-80
2023/09/22 04:31:37;;;;;;;1.40;1.30;;;13.90;99.90;;;;;;4984127;28;20197;-80
2023/09/22 04:34:03;;;;;;;7.47;1.97;;;13.90;99.90;;;;;;4985317;28;20310;-81
2023/09/22 04:36:30;;;;;;;2.83;1.40;;;13.90;99.90;;;;;;4984699;28;20610;-81
2023/09/22 04:38:56;;;;;;;3.50;1.60;;;13.90;99.90;;;;;;4984258;28;20221;-80
2023/09/22 04:41:22;;;;;;;4.23;1.30;;;13.90;99.90;;;;;;4985302;28;20198;-80
2023/09/22 04:43:48;;;;;;;4.97;1.50;;;13.90;99.90;;;;;;4984657;28;20186;-80
2023/09/22 04:46:15;;;;;;;6.27;1.50;;;13.80;99.90;;;;;;4985120;28;20218;-80
2023/09/22 04:48:41;;;;;;;5.13;1.40;;;13.90;99.90;;;;;;4984494;28;20229;-81
2023/09/22 04:51:07;;;;;;;5.17;1.50;;;13.80;99.90;;;;;;4985521;28;20218;-81
2023/09/22 04:53:33;;;;;;;5.23;1.27;;;13.80;99.90;;;;;;4988179;28;20170;-80
2023/09/22 04:56:03;;;;;;;7.33;1.60;;;13.80;99.90;;;;;;4987636;28;20577;-81
2023/09/22 04:58:30;;;;;;;3.27;1.40;;;13.80;99.90;;;;;;4986137;28;20186;-80
2023/09/22 05:00:57;;;;;;;5.80;1.80;;;13.80;99.90;;;;;;4987064;28;20653;-81
2023/09/22 05:03:24;;;;;;;5.10;1.30;;;13.80;99.90;;;;;;4985527;28;20186;-80
2023/09/22 05:05:51;;;;;;;4.13;1.63;;;13.80;99.90;;;;;;4985903;28;20295;-80
2023/09/22 05:08:16;;;;;;;5.23;1.30;;;13.80;99.90;;;;;;4986287;28;20185;-80
2023/09/22 05:10:47;;;;;;;5.83;1.70;;;13.70;99.90;;;;;;4986476;28;20171;-80
2023/09/22 05:13:14;;;;;;;4.83;1.80;;;13.70;99.90;;;;;;4985755;28;20198;-78
2023/09/22 05:15:41;;;;;;;5.87;1.50;;;13.70;99.90;;;;;;4982231;28;20179;-80
2023/09/22 05:18:12;;;;;;;6.90;1.60;;;13.70;99.90;;;;;;4982589;28;20550;-81
2023/09/22 05:20:39;;;;;;;4.90;1.53;;;13.70;99.90;;;;;;4979664;28;20229;-79
2023/09/22 05:23:04;;;;;;;5.40;1.33;;;13.70;99.90;;;;;;4982332;28;20201;-80
2023/09/22 05:25:30;;;;;;;5.53;1.67;;;13.70;99.90;;;;;;4982265;28;20202;-79
2023/09/22 05:27:56;;;;;;;3.67;1.50;;;13.70;99.90;;;;;;4981624;28;20171;-79
2023/09/22 05:30:23;;;;;;;3.33;1.60;;;13.70;99.90;;;;;;4981754;28;20182;-79
2023/09/22 05:32:49;;;;;;;4.10;1.30;;;13.70;99.90;;;;;;4981783;28;20191;-79
2023/09/22 05:35:15;;;;;;;4.00;1.30;;;13.70;99.90;;;;;;4980826;28;20182;-79
2023/09/22 05:37:41;;;;;;;4.80;1.67;;;13.70;99.90;;;;;;4980988;28;20197;-78
2023/09/22 05:40:12;;;;;;;2.87;1.53;;;13.70;99.90;;;;;;4979195;28;20174;-79
2023/09/22 05:42:42;;;;;;;4.20;1.60;;;13.70;99.90;;;;;;4979620;28;20202;-79
2023/09/22 05:45:09;;;;;;;5.60;1.50;;;13.60;99.90;;;;;;4978675;28;20550;-79
2023/09/22 05:47:35;;;;;;;2.73;1.40;;;13.60;99.90;;;;;;4980247;28;20249;-79
2023/09/22 05:50:02;;;;;;;2.10;1.43;;;13.60;99.90;;;;;;4979638;28;20166;-79
2023/09/22 05:52:28;;;;;;;5.63;1.67;;;13.60;99.90;;;;;;4977765;28;20209;-79
2023/09/22 05:54:54;;;;;;;3.60;1.33;;;13.60;99.90;;;;;;4977943;28;20174;-79
2023/09/22 05:57:19;;;;;;;3.90;1.90;;;13.60;99.90;;;;;;4979269;28;20578;-79
2023/09/22 05:59:46;;;;;;;2.20;1.60;;;13.50;99.90;;;;;;4980396;28;20183;-79
2023/09/22 06:02:12;;;;;;;6.10;1.80;;;13.70;99.90;;;;;;4979434;28;20194;-79
2023/09/22 06:04:37;;;;;;;2.10;1.37;;;13.50;99.90;;;;;;4981519;28;20653;-79
2023/09/22 06:07:03;;;;;;;3.57;1.67;;;13.50;99.90;;;;;;4981257;28;20288;-79
2023/09/22 06:09:31;;;;;;;2.63;1.50;;;13.40;99.90;;;;;;4979359;28;20258;-79
2023/09/22 06:11:57;;;;;;;4.77;1.73;;;13.50;99.90;;;;;;4979301;28;20245;-80
2023/09/22 06:14:22;;;;;;;7.00;1.80;;;13.60;99.90;;;;;;4981628;28;20174;-79
2023/09/22 06:16:49;;;;;;;5.33;1.60;;;13.40;99.90;;;;;;4983162;28;20174;-79
2023/09/22 06:19:15;;;;;;;5.13;1.73;;;13.40;99.90;;;;;;4979855;28;20178;-80
2023/09/22 06:21:40;;;;;;;8.23;2.73;;;13.40;99.90;;;;;;4978164;28;20212;-80
2023/09/22 06:24:07;;;;;;;4.53;1.80;;;13.40;99.90;;;;;;4978529;28;20182;-79
2023/09/22 06:26:32;;;;;;;4.17;1.57;;;13.50;99.90;;;;;;4978021;28;20206;-79
2023/09/22 06:28:58;;;;;;;3.90;1.87;;;13.40;99.90;;;;;;4979150;28;20206;-79
2023/09/22 06:31:23;;;;;;;3.87;1.80;;;13.50;99.90;;;;;;4979149;28;20212;-79
2023/09/22 06:33:49;;;;;;;8.20;1.93;;;13.40;99.90;;;;;;4979868;28;20534;-80
2023/09/22 06:36:15;;;;;;;5.80;2.13;;;13.40;99.90;;;;;;4978964;28;20206;-81
2023/09/22 06:38:41;;;;;;;5.27;2.23;;;13.40;99.90;;;;;;4981091;28;20197;-79
2023/09/22 06:41:06;;;;;;;6.23;2.07;;;13.40;99.90;;;;;;4979045;28;20234;-78
2023/09/22 06:43:33;;;;;;;4.20;1.87;;;13.40;99.90;;;;;;4979623;28;20178;-78
2023/09/22 06:46:03;;;;;;;5.20;1.90;;;13.40;99.90;;;;;;4979358;28;20190;-78
2023/09/22 06:48:30;;;;;;;9.27;2.57;;;13.40;99.90;;;;;;4977863;28;20221;-78
2023/09/22 06:50:59;;;;;;;5.10;2.50;;;13.40;99.90;;;;;;4978582;28;20326;-79
2023/09/22 06:53:29;;;;;;;5.33;4.40;;;13.40;99.90;;;;;;4979148;28;20254;-78
2023/09/22 06:56:11;;;;;;;3.43;2.60;;;13.30;99.90;;;;;;4976296;28;20193;-79
2023/09/22 06:58:40;;;;;;;4.87;2.33;;;13.40;99.90;;;;;;4978562;28;20166;-78
2023/09/22 07:01:13;;;;;;;6.73;1.70;;;13.50;99.90;;;;;;4977455;28;20206;-78
2023/09/22 07:03:40;;;;;;;5.00;2.30;;;13.50;99.90;;;;;;4977971;28;20185;-78
2023/09/22 07:06:07;;;;;;;4.10;1.80;;;13.50;99.90;;;;;;4977609;28;20226;-78
2023/09/22 07:08:34;;;;;;;7.43;2.20;;;13.50;99.90;;;;;;4976686;28;20578;-78
2023/09/22 07:11:01;;;;;;;5.30;2.00;;;13.50;99.90;;;;;;4976949;28;20237;-78
2023/09/22 07:13:27;;;;;;;7.37;2.07;;;13.50;99.90;;;;;;4977897;28;20189;-79
2023/09/22 07:15:53;;;;;;;8.83;2.10;;;13.60;99.90;;;;;;4976290;28;20182;-78
2023/09/22 07:18:19;;;;;;;7.80;2.23;;;13.60;99.90;;;;;;4976548;28;20205;-78
2023/09/22 07:20:48;;;;;;;7.80;1.80;;;13.60;99.90;;;;;;4976525;28;20186;-79
2023/09/22 07:23:14;;;;;;;3.90;2.23;;;13.60;99.90;;;;;;4976724;28;20182;-78
2023/09/22 07:25:40;;;;;;;3.63;1.67;;;13.70;99.90;;;;;;4975879;28;20280;-78
2023/09/22 07:28:08;;;;;;;3.77;1.70;;;13.70;99.90;;;;;;4975833;28;20179;-78
2023/09/22 07:30:34;;;;;;;7.30;1.70;;;13.80;99.90;;;;;;4976455;28;20302;-78
2023/09/22 07:33:00;;;;;;;3.97;1.63;;;13.80;99.90;;;;;;4977399;28;20190;-78
2023/09/22 07:35:26;;;;;;;3.23;1.50;;;13.80;99.90;;;;;;4976229;28;20241;-79
2023/09/22 07:37:52;;;;;;;4.50;1.27;;;13.90;99.90;;;;;;4976101;28;20189;-79
2023/09/22 07:40:17;;;;;;;6.43;1.47;;;13.90;99.90;;;;;;4976733;28;20162;-78
2023/09/22 07:42:44;;;;;;;4.70;1.33;;;13.90;99.90;;;;;;4974753;28;20430;-78
2023/09/22 07:45:10;;;;;;;4.60;1.50;;;14.00;99.90;;;;;;4976272;28;20194;-78
2023/09/22 07:47:37;;;;;;;5.33;1.03;;;14.00;99.90;;;;;;4974204;28;20528;-78
2023/09/22 07:50:04;;;;;;;4.20;1.30;;;14.00;99.90;;;;;;4973947;28;20253;-78
2023/09/22 07:52:29;;;;;;;9.90;1.60;;;14.10;99.90;;;;;;4976706;28;20262;-78
2023/09/22 07:54:56;;;;;;;4.17;1.20;;;14.10;99.90;;;;;;4975845;28;20174;-78
2023/09/22 07:57:22;;;;;;;4.43;1.27;;;14.10;99.90;;;;;;4973849;28;20209;-78
2023/09/22 07:59:47;;;;;;;3.30;1.27;;;14.20;99.90;;;;;;4974473;28;20185;-78
2023/09/22 08:02:14;;;;;;;4.07;1.30;;;14.30;99.90;;;;;;4978206;28;20663;-79
2023/09/22 08:04:40;;;;;;;6.20;1.20;;;14.30;99.90;;;;;;4978848;28;20553;-78
2023/09/22 08:07:06;;;;;;;1.70;1.17;;;14.30;99.90;;;;;;4979124;28;20217;-78
2023/09/22 08:09:32;;;;;;;5.30;1.40;;;14.40;99.90;;;;;;4980208;28;20178;-78
2023/09/22 08:11:57;;;;;;;2.10;1.20;;;14.40;99.90;;;;;;4980813;28;20621;-79
2023/09/22 08:14:25;;;;;;;2.17;1.30;;;14.50;99.90;;;;;;4981011;28;20182;-79
2023/09/22 08:16:50;;;;;;;3.57;1.33;;;14.50;99.90;;;;;;4978396;28;20573;-78
2023/09/22 08:19:16;;;;;;;3.97;1.07;;;14.50;99.90;;;;;;4978442;28;20221;-79
2023/09/22 08:21:42;;;;;;;4.50;0.90;;;14.60;99.90;;;;;;4979527;28;20210;-79
2023/09/22 08:24:08;;;;;;;2.70;1.13;;;14.70;99.90;;;;;;4980201;28;20277;-79
2023/09/22 08:26:34;;;;;;;2.53;1.03;;;14.80;99.90;;;;;;4980942;28;20697;-79
2023/09/22 08:29:00;;;;;;;4.47;1.27;;;14.90;99.90;;;;;;4981993;28;20171;-79
2023/09/22 08:31:26;;;;;;;3.33;0.83;;;14.90;99.90;;;;;;4981750;28;20674;-79
2023/09/22 08:33:53;;;;;;;2.40;0.87;;;14.90;99.90;;;;;;4980432;28;20206;-79
2023/09/22 08:36:19;;;;;;;1.33;0.70;;;15.10;99.90;;;;;;4979158;28;20178;-79
2023/09/22 08:38:47;;;;;;;2.57;1.10;;;15.10;99.90;;;;;;4980667;28;20578;-79
2023/09/22 08:41:13;;;;;;;2.33;1.30;;;15.30;99.90;;;;;;4980983;28;20248;-79
2023/09/22 08:43:40;;;;;;;5.00;0.90;;;15.40;99.90;;;;;;4983433;28;20178;-80
2023/09/22 08:46:06;;;;;;;1.73;0.93;;;15.40;99.90;;;;;;4980167;28;20202;-79
2023/09/22 08:48:31;;;;;;;2.83;0.90;;;15.40;99.90;;;;;;4982496;28;20293;-80
2023/09/22 08:50:57;;;;;;;5.43;0.90;;;15.40;99.90;;;;;;4985103;28;20178;-81
2023/09/22 08:53:23;;;;;;;1.90;0.60;;;15.50;99.90;;;;;;4981650;28;20212;-82
2023/09/22 08:55:51;;;;;;;2.10;0.77;;;15.40;99.90;;;;;;4982226;28;20186;-81
2023/09/22 08:58:20;;;;;;;2.57;0.80;;;15.40;99.90;;;;;;4979988;28;20269;-82
2023/09/22 09:00:53;;;;;;;2.80;0.87;;;15.50;99.90;;;;;;4978532;28;20189;-81
2023/09/22 09:03:20;;;;;;;3.60;0.70;;;15.50;99.90;;;;;;4979786;28;20209;-81
2023/09/22 09:05:46;;;;;;;3.33;0.70;;;15.70;99.90;;;;;;4977682;28;20249;-79
2023/09/22 09:08:14;;;;;;;3.17;0.77;;;15.70;99.90;;;;;;4965440;28;20197;-78
2023/09/22 09:10:41;;;;;;;2.23;0.80;;;15.80;99.90;;;;;;4958973;29;20241;-79
2023/09/22 09:13:07;;;;;;;3.40;0.97;;;15.90;99.90;;;;;;4957668;28;20545;-78
2023/09/22 09:16:06;;;;;;;4.03;0.73;;;16.00;99.90;;;;;;4959790;29;20211;-79
2023/09/22 09:18:31;;;;;;;2.53;0.77;;;16.10;99.90;;;;;;4959310;28;20170;-78
2023/09/22 09:21:12;;;;;;;1.57;0.80;;;16.10;99.90;;;;;;4957928;28;20186;-79
2023/09/22 09:23:54;;;;;;;3.00;0.90;;;16.10;99.90;;;;;;4959012;29;20163;-78
2023/09/22 09:26:32;;;;;;;3.57;0.70;;;16.10;99.90;;;;;;4957490;29;20190;-79
2023/09/22 09:29:01;;;;;;;2.10;0.70;;;16.20;99.90;;;;;;4959113;29;20175;-78
2023/09/22 09:31:46;;;;;;;7.73;0.80;;;16.20;99.90;;;;;;4958398;28;20666;-78
2023/09/22 09:34:12;;;;;;;2.53;0.60;;;16.30;99.90;;;;;;4958252;28;20266;-78
2023/09/22 09:36:38;;;;;;;1.33;0.70;;;16.30;99.90;;;;;;4960812;28;20194;-79
2023/09/22 09:39:04;;;;;;;5.03;0.70;;;16.40;99.90;;;;;;4973209;28;20307;-78
2023/09/22 09:41:31;;;;;;;2.13;0.73;;;16.50;99.90;;;;;;4958291;28;20586;-78
2023/09/22 09:43:59;;;;;;;2.67;0.90;;;16.70;99.90;;;;;;4957442;29;20174;-78
2023/09/22 09:46:28;;;;;;;4.23;0.90;;;16.70;1.00;;;;;;4962715;28;20201;-79
2023/09/22 09:48:55;;;;;;;2.57;0.70;;;16.80;99.90;;;;;;4977634;28;20234;-79
2023/09/22 09:51:24;;;;;;;1.53;0.90;;;16.70;99.90;;;;;;4977804;28;20187;-79
2023/09/22 09:53:52;;;;;;;1.07;0.70;;;16.60;99.90;;;;;;4977735;28;20170;-80
2023/09/22 09:56:18;;;;;;;1.77;0.70;;;16.60;99.90;;;;;;4980081;28;20219;-78
2023/09/22 09:58:48;;;;;;;0.90;0.70;;;16.50;99.90;;;;;;4977449;28;20257;-78
2023/09/22 10:01:13;;;;;;;2.03;1.03;;;16.60;99.90;;;;;;4978445;28;20198;-78
2023/09/22 10:03:39;;;;;;;4.70;0.90;;;16.50;99.90;;;;;;4977984;28;20193;-79
2023/09/22 10:06:09;;;;;;;1.67;0.80;;;16.50;99.90;;;;;;4977255;28;20201;-79
2023/09/22 10:08:36;;;;;;;1.90;0.63;;;16.40;99.90;;;;;;4978788;28;20174;-79
2023/09/22 10:11:05;;;;;;;1.40;0.60;;;16.50;99.90;;;;;;4978809;28;20258;-79
2023/09/22 10:13:31;;;;;;;1.63;0.60;;;16.50;99.90;;;;;;4978206;28;20258;-79
2023/09/22 10:16:03;;;;;;;3.53;0.90;;;16.50;99.90;;;;;;4977349;28;20186;-79
2023/09/22 10:18:49;;;;;;;3.63;0.80;;;16.50;99.90;;;;;;4975048;28;20265;-78
2023/09/22 10:21:43;;;;;;;1.83;0.80;;;16.50;99.90;;;;;;4979966;28;20198;-79
2023/09/22 10:24:23;;;;;;;0.87;0.60;;;16.40;99.90;;;;;;4977702;28;20639;-79
2023/09/22 10:26:55;;;;;;;1.70;0.80;;;16.40;99.90;;;;;;4978756;28;20218;-80
2023/09/22 10:29:33;;;;;;;2.40;0.80;;;16.40;99.90;;;;;;4985177;28;20669;-80
2023/09/22 10:35:15;;;;;;;0.87;0.60;;;16.30;99.90;;;;;;4979581;28;20177;-80
2023/09/22 10:38:00;;;;;;;1.40;0.80;;;16.40;99.90;;;;;;4962598;28;20193;-80
2023/09/22 10:40:25;;;;;;;1.57;0.70;;;16.50;99.90;;;;;;4980129;28;20253;-80
2023/09/22 10:42:51;;;;;;;3.40;1.10;;;16.50;99.90;;;;;;4978594;28;20222;-79
2023/09/22 10:45:21;;;;;;;3.57;0.87;;;16.60;99.90;;;;;;4980880;28;20194;-80
2023/09/22 10:47:57;;;;;;;4.43;0.80;;;16.70;99.90;;;;;;4979278;28;20179;-79
2023/09/22 10:50:26;;;;;;;1.97;0.90;;;16.60;99.90;;;;;;4978326;28;20189;-80
2023/09/22 10:52:54;;;;;;;5.23;1.10;;;16.60;99.90;;;;;;4979760;28;20190;-79
2023/09/22 10:55:28;;;;;;;3.33;0.73;;;16.60;99.90;;;;;;4979169;28;20170;-79
2023/09/22 10:57:55;;;;;;;4.93;1.13;;;16.60;99.90;;;;;;4979549;28;20665;-80
2023/09/22 11:00:22;;;;;;;1.87;0.70;;;16.70;99.90;;;;;;4980984;28;20174;-80
2023/09/22 11:02:47;;;;;;;2.30;0.80;;;16.70;99.90;;;;;;4982325;28;20232;-79
2023/09/22 11:05:16;;;;;;;4.93;0.80;;;16.70;99.90;;;;;;4980675;28;20206;-81
2023/09/22 11:07:43;;;;;;;3.50;0.80;;;16.70;99.90;;;;;;4969623;28;20663;-80
2023/09/22 11:10:16;;;;;;;1.43;0.80;;;16.60;99.90;;;;;;4960918;29;20167;-80
2023/09/22 11:12:54;;;;;;;1.60;0.70;;;16.70;99.90;;;;;;4959833;28;20206;-81
2023/09/22 11:15:20;;;;;;;1.70;0.80;;;16.70;99.90;;;;;;4959483;29;20182;-80
2023/09/22 11:17:46;;;;;;;2.60;0.93;;;16.80;99.90;;;;;;4962226;28;20677;-82
2023/09/22 11:20:22;;;;;;;2.60;0.90;;;16.80;99.90;;;;;;4977091;28;20181;-82
2023/09/22 11:22:49;;;;;;;5.70;0.90;;;16.90;99.90;;;;;;4980337;28;20269;-81
2023/09/22 11:25:15;;;;;;;2.13;1.00;;;16.90;99.90;;;;;;4981193;28;20201;-80
2023/09/22 11:27:51;;;;;;;2.73;1.00;;;17.00;99.90;;;;;;4981188;28;20263;-81
2023/09/22 11:30:21;;;;;;;8.60;1.17;;;17.00;99.90;;;;;;4978657;28;20186;-80
2023/09/22 11:32:47;;;;;;;2.70;0.80;;;17.10;99.90;;;;;;4980716;28;20194;-81
2023/09/22 11:35:29;;;;;;;2.00;0.80;;;17.10;99.90;;;;;;4981693;28;20178;-82
2023/09/22 11:37:57;;;;;;;2.40;0.73;;;17.10;99.90;;;;;;4980511;28;20660;-81
2023/09/22 11:40:25;;;;;;;5.67;1.00;;;17.00;99.90;;;;;;4979779;28;20212;-81
2023/09/22 11:42:50;;;;;;;2.03;0.90;;;17.00;99.90;;;;;;4980565;28;20206;-80
2023/09/22 11:45:21;;;;;;;3.57;1.00;;;17.00;99.90;;;;;;4980605;28;20300;-81
2023/09/22 11:47:47;;;;;;;2.47;0.83;;;17.10;99.90;;;;;;4979365;28;20194;-81
2023/09/22 11:50:25;;;;;;;1.00;0.60;;;17.10;99.90;;;;;;4979611;28;20216;-81
2023/09/22 11:52:51;;;;;;;2.23;0.60;;;17.10;70.80;;;;;;4979637;28;20669;-82
2023/09/22 11:55:17;;;;;;;2.73;0.93;;;17.20;49.00;;;;;;4982458;28;20238;-81
2023/09/22 11:57:42;;;;;;;4.53;1.20;;;17.30;99.90;;;;;;4980699;28;20205;-81
2023/09/22 12:00:13;;;;;;;2.37;1.00;;;17.40;1.00;;;;;;4980565;28;20182;-81
2023/09/22 12:02:39;;;;;;;2.87;1.10;;;17.60;58.00;;;;;;4980896;28;20757;-81
2023/09/22 12:05:06;;;;;;;1.67;0.83;;;17.70;43.80;;;;;;4980921;28;20202;-81
2023/09/22 12:07:32;;;;;;;3.03;0.97;;;17.80;99.90;;;;;;4978920;28;20170;-81
2023/09/22 12:09:58;;;;;;;1.70;0.83;;;17.90;94.60;;;;;;4982013;28;20209;-82
2023/09/22 12:12:24;;;;;;;2.17;0.60;;;18.00;1.00;;;;;;4983582;28;20197;-81
2023/09/22 12:14:50;;;;;;;1.17;0.90;;;18.10;96.20;;;;;;4980806;28;20170;-81
2023/09/22 12:17:15;;;;;;;2.97;0.80;;;18.10;1.00;;;;;;4982643;28;20202;-81
2023/09/22 12:19:41;;;;;;;2.00;0.87;;;18.10;1.00;;;;;;4980238;28;20509;-81
2023/09/22 12:22:06;;;;;;;2.97;0.90;;;18.20;33.10;;;;;;4979417;28;20197;-81
2023/09/22 12:24:32;;;;;;;4.00;1.27;;;18.10;1.00;;;;;;4980487;28;20193;-79
2023/09/22 12:26:57;;;;;;;5.87;1.07;;;18.20;1.00;;;;;;4982324;28;20186;-81
2023/09/22 12:29:24;;;;;;;1.00;0.90;;;18.30;1.00;;;;;;4974970;28;20237;-81
2023/09/22 12:31:50;;;;;;;3.67;1.03;;;18.20;1.00;;;;;;4962679;28;20647;-81
2023/09/22 12:34:17;;;;;;;3.30;0.83;;;18.30;1.00;;;;;;4961083;29;20189;-81
2023/09/22 12:36:43;;;;;;;1.20;0.70;;;18.30;50.40;;;;;;4977154;28;20189;-81
2023/09/22 12:39:11;;;;;;;2.20;0.97;;;18.40;97.50;;;;;;4981821;28;20533;-81
2023/09/22 12:41:36;;;;;;;2.93;0.80;;;18.50;94.40;;;;;;4983476;28;20199;-82
2023/09/22 12:44:02;;;;;;;2.20;0.70;;;18.50;1.00;;;;;;4980312;28;20174;-81
2023/09/22 12:46:28;;;;;;;2.20;1.00;;;18.30;1.00;;;;;;4980213;28;20194;-81
2023/09/22 12:48:53;;;;;;;3.07;0.80;;;18.20;13.40;;;;;;4980610;28;20193;-80
2023/09/22 12:51:19;;;;;;;2.10;1.00;;;18.10;1.00;;;;;;4982777;28;20602;-82